Terminal Aerodrome Forecast
Issued by NWS Tulsa, OK

Home | Current Version | Previous Version | Text Only | Print | Product List | Glossary On
Versions: 1 2 3 4 5 6 7 8 9 10 11 12
000
FTUS44 KTSA 012340
TAFFSM
TAF
KFSM 012340Z 0200/0224 20011KT P6SM SCT180
     FM020700 22008KT P6SM SCT040 BKN120
     FM021200 23010KT P6SM VCTS BKN060CB
     FM021800 24011KT P6SM SCT050 BKN120
     FM022100 25012KT P6SM VCTS SCT050CB BKN120 PROB30 0221/0224 4SM
      TSRA BKN035CB=

USA.gov is the U.S. government's official web portal to all federal, state and local government web resources and services.